Time;durP1;ratioP1;P1;durP2;ratioP2;P2;SDS_P1;SDS_P2;PMS_P1;PMS_P2;Temp;Humidity;BMP_temperature;BMP_pressure;BME280_temperature;BME280_humidity;BME280_pressure;Samples;Min_cycle;Max_cycle;Signal;HPM_P1;HPM_P2
2022/01/05 00:00:38;;;;;;;1.80;1.03;;;18.90;73.60;;;;;;4943232;29;20247;-20
2022/01/05 00:03:05;;;;;;;1.37;0.90;;;18.90;73.30;;;;;;4942636;29;20452;-23
2022/01/05 00:05:32;;;;;;;0.90;0.80;;;19.00;73.00;;;;;;4942681;29;20153;-22
2022/01/05 00:07:57;;;;;;;2.03;1.10;;;19.00;72.50;;;;;;4943096;29;20228;-21
2022/01/05 00:10:23;;;;;;;1.43;0.90;;;19.10;72.10;;;;;;4942740;29;20188;-21
2022/01/05 00:12:49;;;;;;;0.90;0.90;;;19.10;71.70;;;;;;4942799;29;20160;-23
2022/01/05 00:15:15;;;;;;;1.90;1.00;;;19.20;71.20;;;;;;4942505;29;20171;-21
2022/01/05 00:17:41;;;;;;;0.90;0.80;;;19.20;70.60;;;;;;4942534;29;20161;-23
2022/01/05 00:20:08;;;;;;;2.37;0.90;;;19.30;70.10;;;;;;4941659;29;20178;-20
2022/01/05 00:22:34;;;;;;;1.00;0.90;;;19.40;69.50;;;;;;4941946;29;20221;-22
2022/01/05 00:24:59;;;;;;;1.03;0.90;;;19.40;69.10;;;;;;4942370;29;20163;-22
2022/01/05 00:27:25;;;;;;;0.87;0.80;;;19.30;69.20;;;;;;4941677;29;20215;-24
2022/01/05 00:29:52;;;;;;;1.60;1.03;;;19.30;69.00;;;;;;4942432;29;20263;-22
2022/01/05 00:32:17;;;;;;;1.27;0.90;;;19.30;69.10;;;;;;4942016;29;20185;-18
2022/01/05 00:34:43;;;;;;;1.20;0.90;;;19.30;68.80;;;;;;4941693;29;20179;-21
2022/01/05 00:37:09;;;;;;;1.77;0.90;;;19.30;68.80;;;;;;4942344;29;20172;-20
2022/01/05 00:39:35;;;;;;;1.70;0.93;;;19.30;68.70;;;;;;4942086;29;20172;-21
2022/01/05 00:42:01;;;;;;;1.37;1.00;;;19.20;68.90;;;;;;4941733;29;20265;-21
2022/01/05 00:44:27;;;;;;;1.20;0.90;;;19.20;69.00;;;;;;4941360;29;20157;-20
2022/01/05 00:46:53;;;;;;;1.27;0.80;;;19.20;69.00;;;;;;4941298;29;20274;-21
2022/01/05 00:49:20;;;;;;;0.90;0.80;;;19.20;69.20;;;;;;4940930;29;20184;-20
2022/01/05 00:51:46;;;;;;;1.27;0.90;;;19.20;69.20;;;;;;4942289;29;20168;-23
2022/01/05 00:54:12;;;;;;;1.90;0.83;;;19.20;69.30;;;;;;4941651;29;20261;-23
2022/01/05 00:56:37;;;;;;;2.93;0.90;;;19.20;69.20;;;;;;4942202;29;20177;-20
2022/01/05 00:59:04;;;;;;;0.80;0.80;;;19.10;69.20;;;;;;4941954;29;20234;-19
2022/01/05 01:01:30;;;;;;;1.13;0.77;;;19.10;69.50;;;;;;4941099;29;20186;-20
2022/01/05 01:03:56;;;;;;;1.00;0.90;;;19.10;69.60;;;;;;4941784;29;20180;-23
2022/01/05 01:06:21;;;;;;;1.33;0.97;;;19.00;69.90;;;;;;4940263;29;20180;-23
2022/01/05 01:08:47;;;;;;;1.13;1.00;;;19.00;69.90;;;;;;4941354;29;20183;-21
2022/01/05 01:11:13;;;;;;;2.10;0.90;;;19.00;70.10;;;;;;4956937;29;20283;-22
2022/01/05 01:13:39;;;;;;;1.40;0.80;;;19.00;70.30;;;;;;4940977;29;20282;-20
2022/01/05 01:16:04;;;;;;;1.40;1.00;;;19.00;70.20;;;;;;4941312;29;20499;-20
2022/01/05 01:18:30;;;;;;;2.23;0.90;;;18.90;70.40;;;;;;4941000;29;20269;-23
2022/01/05 01:20:56;;;;;;;1.33;0.90;;;18.90;70.30;;;;;;4942115;29;20184;-22
2022/01/05 01:23:23;;;;;;;0.77;0.73;;;18.90;70.40;;;;;;4941064;29;20215;-20
2022/01/05 01:25:50;;;;;;;1.23;0.93;;;18.90;70.40;;;;;;4940820;29;20177;-24
2022/01/05 01:28:17;;;;;;;1.60;0.90;;;18.90;70.60;;;;;;4941025;29;20269;-21
2022/01/05 01:30:42;;;;;;;1.03;0.90;;;18.80;70.80;;;;;;4940233;29;20189;-24
2022/01/05 01:33:08;;;;;;;1.20;1.00;;;18.80;71.00;;;;;;4940191;29;20186;-22
2022/01/05 01:35:34;;;;;;;1.90;1.00;;;18.80;71.10;;;;;;4940363;29;20223;-19
2022/01/05 01:38:00;;;;;;;1.57;0.90;;;18.80;71.00;;;;;;4940357;29;20186;-20
2022/01/05 01:40:26;;;;;;;1.07;0.80;;;18.80;71.10;;;;;;4956618;29;20242;-23
2022/01/05 01:42:51;;;;;;;1.23;1.03;;;18.70;71.10;;;;;;4940066;29;20225;-23
2022/01/05 01:45:18;;;;;;;0.80;0.80;;;18.70;71.30;;;;;;4940470;29;20175;-19
2022/01/05 01:47:45;;;;;;;1.07;0.77;;;18.70;71.60;;;;;;4941295;29;20590;-21
2022/01/05 01:50:11;;;;;;;1.27;1.00;;;18.70;71.30;;;;;;4940127;29;20188;-22
2022/01/05 01:52:37;;;;;;;1.00;0.87;;;18.70;71.40;;;;;;4940716;29;20178;-23
2022/01/05 01:55:04;;;;;;;1.10;0.80;;;18.60;71.50;;;;;;4939658;29;20282;-23
2022/01/05 01:57:34;;;;;;;0.87;0.87;;;18.60;72.00;;;;;;4940537;29;20254;-23
2022/01/05 02:00:00;;;;;;;0.90;0.80;;;18.60;72.00;;;;;;4940719;29;20267;-22
2022/01/05 02:02:26;;;;;;;1.33;0.90;;;18.60;72.00;;;;;;4940742;29;20203;-23
2022/01/05 02:04:58;;;;;;;1.43;0.90;;;18.50;72.10;;;;;;4940678;29;20227;-22
2022/01/05 02:07:24;;;;;;;1.30;1.00;;;18.50;72.00;;;;;;4940762;29;20218;-21
2022/01/05 02:14:54;;;;;;;1.30;1.00;;;18.50;72.10;;;;;;4934809;29;20226;-23
2022/01/05 02:17:24;;;;;;;0.77;0.70;;;18.50;72.00;;;;;;4933925;29;20175;-21
2022/01/05 02:19:50;;;;;;;1.00;0.70;;;18.50;71.70;;;;;;4951540;29;20176;-25
2022/01/05 02:22:16;;;;;;;1.10;1.00;;;18.60;71.70;;;;;;4936270;29;20219;-24
2022/01/05 02:24:46;;;;;;;0.73;0.70;;;18.50;71.50;;;;;;4937930;29;20175;-23
2022/01/05 02:27:13;;;;;;;0.90;0.80;;;18.50;71.60;;;;;;4938069;29;20585;-23
2022/01/05 02:29:39;;;;;;;0.97;0.80;;;18.60;71.40;;;;;;4938130;29;20208;-21
2022/01/05 02:32:05;;;;;;;1.93;0.90;;;18.60;71.10;;;;;;4936443;29;20308;-22
2022/01/05 02:34:31;;;;;;;1.63;0.90;;;18.60;71.00;;;;;;4936692;29;20185;-20
2022/01/05 02:36:56;;;;;;;1.23;0.87;;;18.60;70.80;;;;;;4937189;29;20241;-23
2022/01/05 02:39:22;;;;;;;1.37;0.90;;;18.60;70.80;;;;;;4936626;29;20169;-20
2022/01/05 02:41:49;;;;;;;1.00;0.90;;;18.60;70.70;;;;;;4934856;29;20356;-22
2022/01/05 02:44:14;;;;;;;1.10;0.90;;;18.60;70.50;;;;;;4937287;29;20456;-20
2022/01/05 02:46:40;;;;;;;1.20;0.90;;;18.60;70.60;;;;;;4937605;29;20186;-21
2022/01/05 02:49:06;;;;;;;1.57;0.83;;;18.50;70.50;;;;;;4936998;29;20258;-21
2022/01/05 02:51:32;;;;;;;1.60;0.90;;;18.50;70.60;;;;;;4937541;29;20662;-20
2022/01/05 02:53:57;;;;;;;1.10;0.93;;;18.50;70.60;;;;;;4935242;29;20215;-21
2022/01/05 02:56:23;;;;;;;1.43;0.93;;;18.50;70.60;;;;;;4936617;29;20207;-22
2022/01/05 02:58:49;;;;;;;1.43;1.10;;;18.50;70.50;;;;;;4936886;29;20186;-22
2022/01/05 03:01:14;;;;;;;0.93;0.87;;;18.50;70.40;;;;;;4937551;29;20173;-22
2022/01/05 03:03:40;;;;;;;2.87;1.10;;;18.50;70.90;;;;;;4952058;29;20221;-22
2022/01/05 03:06:06;;;;;;;1.60;1.20;;;18.50;70.40;;;;;;4935819;29;20186;-21
2022/01/05 03:08:32;;;;;;;2.03;1.10;;;18.40;70.40;;;;;;4937481;29;20497;-21
2022/01/05 03:10:59;;;;;;;1.30;1.00;;;18.40;70.40;;;;;;4936642;29;20176;-22
2022/01/05 03:13:25;;;;;;;1.87;1.00;;;18.40;70.50;;;;;;4937600;29;20213;-21
2022/01/05 03:15:52;;;;;;;1.23;1.03;;;18.40;70.50;;;;;;4937760;29;20182;-23
2022/01/05 03:18:19;;;;;;;1.13;1.00;;;18.40;70.50;;;;;;4921071;29;20179;-22
2022/01/05 03:20:46;;;;;;;1.30;1.00;;;18.40;70.50;;;;;;4938083;29;20200;-24
2022/01/05 03:23:12;;;;;;;2.53;1.10;;;18.40;70.50;;;;;;4936864;29;20238;-20
2022/01/05 03:25:39;;;;;;;1.87;1.30;;;18.40;70.50;;;;;;4936065;29;20175;-21
2022/01/05 03:28:05;;;;;;;2.33;1.13;;;18.30;70.60;;;;;;4936908;29;20451;-21
2022/01/05 03:30:31;;;;;;;1.47;1.10;;;18.30;70.60;;;;;;4936534;29;20635;-25
2022/01/05 03:35:28;;;;;;;1.53;1.00;;;18.30;70.50;;;;;;4937971;29;20181;-23
2022/01/05 03:37:55;;;;;;;1.40;1.07;;;18.30;70.70;;;;;;4938641;29;20200;-21
2022/01/05 03:40:21;;;;;;;1.70;1.10;;;18.20;70.90;;;;;;4938119;29;20295;-23
2022/01/05 03:42:46;;;;;;;1.40;1.10;;;18.20;71.10;;;;;;4937153;29;20313;-22
2022/01/05 03:45:12;;;;;;;1.37;1.10;;;18.10;71.50;;;;;;4937515;29;20223;-19
2022/01/05 03:47:38;;;;;;;1.23;1.07;;;18.00;71.80;;;;;;4940812;29;20175;-21
2022/01/05 03:50:05;;;;;;;1.77;1.20;;;18.00;72.30;;;;;;4954577;29;20227;-22
2022/01/05 03:52:31;;;;;;;2.80;1.20;;;17.90;72.50;;;;;;4940045;29;20187;-23
2022/01/05 03:54:57;;;;;;;2.27;1.27;;;17.90;72.80;;;;;;4941032;29;20269;-22
2022/01/05 03:57:24;;;;;;;2.30;1.13;;;17.80;73.10;;;;;;4939241;29;20193;-22
2022/01/05 03:59:51;;;;;;;2.20;1.10;;;17.80;73.40;;;;;;4941109;29;20286;-22
2022/01/05 04:02:16;;;;;;;1.37;1.20;;;17.70;73.50;;;;;;4940284;29;20247;-21
2022/01/05 04:04:42;;;;;;;1.40;1.10;;;17.80;73.60;;;;;;4941699;29;20220;-22
2022/01/05 04:07:08;;;;;;;1.37;1.10;;;20.70;58.60;;;;;;4938720;29;20282;-23
2022/01/05 04:09:34;;;;;;;1.40;1.10;;;21.50;54.40;;;;;;4939859;29;20222;-22
2022/01/05 04:12:00;;;;;;;1.53;0.93;;;21.80;53.10;;;;;;4939945;29;20510;-22
2022/01/05 04:14:25;;;;;;;1.20;1.10;;;22.00;52.40;;;;;;4937972;29;20189;-23
2022/01/05 04:16:51;;;;;;;2.23;1.10;;;22.20;51.90;;;;;;4939236;29;20183;-19
2022/01/05 04:19:17;;;;;;;1.87;1.07;;;22.40;51.30;;;;;;4941219;29;20380;-21
2022/01/05 04:21:42;;;;;;;2.07;1.17;;;22.70;50.60;;;;;;4940805;29;20400;-21
2022/01/05 04:24:08;;;;;;;1.80;1.20;;;23.10;50.00;;;;;;4939883;29;20180;-21
2022/01/05 04:26:34;;;;;;;1.40;1.10;;;23.50;49.40;;;;;;4939916;29;20243;-22
2022/01/05 04:29:00;;;;;;;1.67;1.20;;;23.70;49.30;;;;;;4939538;29;20184;-20
2022/01/05 04:31:25;;;;;;;1.73;1.10;;;23.70;48.60;;;;;;4938740;29;20543;-21
2022/01/05 04:33:51;;;;;;;2.43;1.23;;;23.90;48.40;;;;;;4938538;29;20243;-23
2022/01/05 04:36:17;;;;;;;1.93;1.00;;;24.10;48.00;;;;;;4938565;29;20586;-23
2022/01/05 04:38:43;;;;;;;1.40;1.10;;;24.50;47.50;;;;;;4938514;29;20830;-25
2022/01/05 04:41:08;;;;;;;1.97;1.10;;;24.70;47.10;;;;;;4939370;29;20299;-21
2022/01/05 04:43:34;;;;;;;2.20;1.40;;;24.70;46.90;;;;;;4939314;29;20283;-21
2022/01/05 04:46:00;;;;;;;1.77;1.20;;;24.60;46.90;;;;;;4939739;29;20184;-22
2022/01/05 04:48:26;;;;;;;1.87;1.20;;;24.50;47.00;;;;;;4940155;29;20244;-22
2022/01/05 04:50:51;;;;;;;4.10;1.33;;;24.30;47.20;;;;;;4939813;29;20184;-26
2022/01/05 04:53:17;;;;;;;2.43;1.70;;;24.20;47.30;;;;;;4937745;29;20172;-23
2022/01/05 04:55:44;;;;;;;3.67;1.70;;;24.00;47.40;;;;;;4938019;29;20590;-23
2022/01/05 04:58:10;;;;;;;4.83;1.97;;;23.60;47.80;;;;;;4936653;29;20442;-22
2022/01/05 05:00:36;;;;;;;5.47;1.80;;;23.40;48.20;;;;;;4938843;29;20558;-22
2022/01/05 05:03:03;;;;;;;6.83;2.00;;;23.10;48.50;;;;;;4940524;29;20266;-25
2022/01/05 05:05:29;;;;;;;6.50;2.00;;;22.80;48.90;;;;;;4940066;29;20183;-22
2022/01/05 05:07:54;;;;;;;6.13;2.30;;;22.60;49.20;;;;;;4939890;29;20172;-24
2022/01/05 05:10:20;;;;;;;8.03;2.53;;;22.50;49.50;;;;;;4939692;29;20179;-20
2022/01/05 05:12:46;;;;;;;7.87;2.37;;;22.30;49.80;;;;;;4938148;29;20179;-20
2022/01/05 05:15:12;;;;;;;8.03;2.73;;;22.00;50.20;;;;;;4938779;29;20239;-21
2022/01/05 05:17:37;;;;;;;9.57;2.80;;;21.70;50.70;;;;;;4937371;29;20184;-21
2022/01/05 05:20:04;;;;;;;10.50;3.67;;;21.50;51.10;;;;;;4937897;29;20176;-23
2022/01/05 05:22:30;;;;;;;11.90;3.10;;;21.30;51.60;;;;;;4936567;29;20222;-21
2022/01/05 05:24:55;;;;;;;9.23;2.97;;;21.00;52.00;;;;;;4937426;29;20450;-22
2022/01/05 05:27:22;;;;;;;10.60;3.37;;;20.90;52.60;;;;;;4938707;29;20177;-22
2022/01/05 05:29:48;;;;;;;10.40;3.20;;;20.70;53.10;;;;;;4937758;29;20461;-21
2022/01/05 05:32:13;;;;;;;12.17;3.57;;;20.40;53.70;;;;;;4938041;29;20281;-22
2022/01/05 05:34:39;;;;;;;15.20;3.87;;;20.20;54.30;;;;;;4938287;29;20187;-22
2022/01/05 05:37:05;;;;;;;13.73;4.47;;;20.10;54.90;;;;;;4938467;29;20186;-21
2022/01/05 05:39:31;;;;;;;13.53;4.37;;;19.90;55.40;;;;;;4935919;29;20191;-21
2022/01/05 05:41:57;;;;;;;15.97;4.30;;;19.80;55.90;;;;;;4936862;29;20656;-22
2022/01/05 05:44:22;;;;;;;16.13;4.43;;;19.70;56.40;;;;;;4936551;29;20215;-20
2022/01/05 05:46:48;;;;;;;10.97;3.87;;;19.60;56.50;;;;;;4920240;29;20235;-21
2022/01/05 05:49:14;;;;;;;12.47;4.30;;;19.70;56.60;;;;;;4937598;29;20558;-21
2022/01/05 05:51:39;;;;;;;11.57;3.97;;;20.00;55.90;;;;;;4936560;29;20365;-22
2022/01/05 05:54:05;;;;;;;16.90;4.77;;;20.50;54.60;;;;;;4931663;29;20184;-23
2022/01/05 05:56:31;;;;;;;18.33;4.70;;;21.50;52.50;;;;;;4936948;29;20299;-21
2022/01/05 05:58:57;;;;;;;15.23;4.80;;;22.70;50.40;;;;;;4936640;29;20360;-21
2022/01/05 06:01:23;;;;;;;17.23;4.67;;;23.50;48.60;;;;;;4932605;29;20224;-23
2022/01/05 06:03:49;;;;;;;16.73;5.17;;;23.90;47.50;;;;;;4932765;29;20215;-23
2022/01/05 06:06:15;;;;;;;13.43;4.87;;;23.90;47.20;;;;;;4936182;29;20183;-22
2022/01/05 06:08:41;;;;;;;18.40;5.20;;;23.90;47.00;;;;;;4935117;29;20168;-23
2022/01/05 06:11:07;;;;;;;15.20;5.27;;;24.10;46.80;;;;;;4935309;29;20175;-23
2022/01/05 06:13:33;;;;;;;14.00;4.90;;;24.20;46.40;;;;;;4936995;29;20636;-19
2022/01/05 06:15:58;;;;;;;17.47;5.13;;;24.30;46.30;;;;;;4936829;29;20566;-24
2022/01/05 06:18:24;;;;;;;13.23;4.53;;;24.30;46.10;;;;;;4935989;29;20565;-19
2022/01/05 06:20:50;;;;;;;15.00;4.77;;;24.10;46.20;;;;;;4935610;29;20180;-22
2022/01/05 06:23:15;;;;;;;13.70;5.03;;;24.00;46.20;;;;;;4935266;29;20711;-23
2022/01/05 06:25:41;;;;;;;14.00;5.20;;;23.80;46.40;;;;;;4933342;29;20566;-20
2022/01/05 06:28:11;;;;;;;14.57;4.90;;;23.60;46.70;;;;;;4933901;29;20176;-22
2022/01/05 06:30:41;;;;;;;12.30;4.33;;;23.20;46.90;;;;;;4932073;29;20184;-21
2022/01/05 06:33:07;;;;;;;15.20;4.57;;;22.90;47.20;;;;;;4934284;29;20183;-21
2022/01/05 06:35:33;;;;;;;14.10;5.50;;;22.70;47.70;;;;;;4935612;29;20570;-21
2022/01/05 06:37:59;;;;;;;16.77;6.10;;;22.50;47.90;;;;;;4934146;29;20172;-20
2022/01/05 06:40:25;;;;;;;18.37;6.07;;;22.20;48.40;;;;;;4936107;29;20172;-22
2022/01/05 06:42:51;;;;;;;17.53;5.80;;;22.00;48.80;;;;;;4935183;29;20277;-23
2022/01/05 06:45:16;;;;;;;16.73;5.60;;;21.80;49.50;;;;;;4932936;29;20179;-22
2022/01/05 06:47:42;;;;;;;18.13;6.43;;;21.60;49.40;;;;;;4931528;29;20303;-21
2022/01/05 06:50:09;;;;;;;16.93;5.87;;;21.40;49.80;;;;;;4931225;29;20169;-23
2022/01/05 06:52:36;;;;;;;18.83;6.70;;;21.10;50.20;;;;;;4930839;29;20238;-21
2022/01/05 06:55:03;;;;;;;20.80;6.60;;;20.80;50.80;;;;;;4932281;29;20176;-21
2022/01/05 06:57:29;;;;;;;19.10;6.10;;;20.70;51.30;;;;;;4930843;29;20344;-24
2022/01/05 06:59:55;;;;;;;17.97;6.10;;;20.50;51.80;;;;;;4933151;29;20178;-22
2022/01/05 07:02:20;;;;;;;17.77;6.73;;;20.20;52.30;;;;;;4932212;29;20300;-21
2022/01/05 07:04:46;;;;;;;17.30;5.70;;;20.10;52.90;;;;;;4931296;29;20302;-23
2022/01/05 07:07:12;;;;;;;15.77;6.13;;;19.90;53.30;;;;;;4931084;29;20186;-23
2022/01/05 07:09:37;;;;;;;15.77;6.00;;;19.80;53.80;;;;;;4942198;29;20195;-25
2022/01/05 07:12:03;;;;;;;13.70;5.20;;;20.20;53.40;;;;;;4931944;29;20449;-23
2022/01/05 07:14:29;;;;;;;15.43;5.70;;;20.80;52.40;;;;;;4930607;29;20218;-20
2022/01/05 07:16:55;;;;;;;15.00;5.10;;;21.60;50.90;;;;;;4931409;29;20200;-23
2022/01/05 07:19:21;;;;;;;16.47;5.33;;;22.70;49.00;;;;;;4932428;29;20205;-23
2022/01/05 07:21:47;;;;;;;12.30;4.80;;;23.50;47.60;;;;;;4933735;29;20694;-22
2022/01/05 07:24:16;;;;;;;13.90;5.33;;;24.10;46.60;;;;;;4934076;29;20203;-25
2022/01/05 07:26:42;;;;;;;12.40;5.00;;;24.50;45.80;;;;;;4932265;29;20583;-23
2022/01/05 07:29:08;;;;;;;14.23;5.37;;;24.70;45.40;;;;;;4935266;29;20707;-23
2022/01/05 07:31:34;;;;;;;18.17;5.90;;;24.50;45.40;;;;;;4951061;29;20279;-23
2022/01/05 07:33:59;;;;;;;11.70;4.53;;;24.30;45.40;;;;;;4932048;29;20190;-21
2022/01/05 07:36:25;;;;;;;11.80;4.50;;;24.10;45.70;;;;;;4934635;29;20196;-21
2022/01/05 07:38:51;;;;;;;11.43;4.80;;;24.10;45.70;;;;;;4933617;29;20598;-23
2022/01/05 07:41:17;;;;;;;12.67;4.53;;;24.00;45.70;;;;;;4935061;29;20172;-26
2022/01/05 07:43:43;;;;;;;8.70;4.10;;;24.10;45.70;;;;;;4933635;29;20239;-23
2022/01/05 07:46:08;;;;;;;11.83;4.63;;;24.00;45.70;;;;;;4936280;29;20378;-23
2022/01/05 07:48:34;;;;;;;11.77;5.03;;;23.80;45.90;;;;;;4935450;29;20173;-23
2022/01/05 07:51:00;;;;;;;7.70;3.67;;;23.60;46.00;;;;;;4937196;29;20176;-22
2022/01/05 07:53:25;;;;;;;12.00;4.73;;;23.40;46.30;;;;;;4934037;29;20581;-22
2022/01/05 07:55:51;;;;;;;10.00;4.07;;;23.10;46.70;;;;;;4931598;29;20656;-22
2022/01/05 07:58:19;;;;;;;12.00;4.17;;;22.70;47.00;;;;;;4933447;29;20294;-22
2022/01/05 08:00:44;;;;;;;10.43;4.13;;;22.40;47.40;;;;;;4933571;29;20227;-23
2022/01/05 08:03:10;;;;;;;10.67;4.50;;;22.10;47.80;;;;;;4932702;29;20251;-22
2022/01/05 08:05:35;;;;;;;10.13;4.13;;;21.90;48.20;;;;;;4934300;29;20562;-21
2022/01/05 08:08:01;;;;;;;7.77;3.97;;;21.70;48.50;;;;;;4949747;29;20177;-23
2022/01/05 08:10:27;;;;;;;8.87;3.87;;;21.60;48.80;;;;;;4933922;29;20211;-25
2022/01/05 08:12:52;;;;;;;11.80;4.47;;;21.30;49.00;;;;;;4934369;29;20190;-22
2022/01/05 08:15:18;;;;;;;10.30;3.87;;;21.10;49.40;;;;;;4936565;29;20191;-22
2022/01/05 08:17:45;;;;;;;9.10;3.73;;;20.90;49.70;;;;;;4933325;29;20342;-21
2022/01/05 08:20:12;;;;;;;9.80;3.73;;;20.90;50.00;;;;;;4932711;29;20250;-25
2022/01/05 08:22:43;;;;;;;9.43;4.10;;;20.80;50.10;;;;;;4932317;29;20490;-24
2022/01/05 08:25:11;;;;;;;8.97;4.07;;;20.90;50.00;;;;;;4931009;29;20179;-22
2022/01/05 08:27:45;;;;;;;7.77;3.57;;;21.20;49.70;;;;;;4932507;29;20189;-21
2022/01/05 08:30:22;;;;;;;9.50;3.80;;;21.50;49.20;;;;;;4933940;29;20499;-22
2022/01/05 08:32:49;;;;;;;8.77;3.40;;;21.70;49.20;;;;;;4933044;29;20183;-20
2022/01/05 08:35:22;;;;;;;7.40;3.77;;;21.60;48.80;;;;;;4934549;29;20184;-24
2022/01/05 08:37:48;;;;;;;6.90;3.20;;;21.40;48.90;;;;;;4933756;29;20183;-20
2022/01/05 08:40:20;;;;;;;8.37;3.33;;;21.30;49.00;;;;;;4932185;29;20262;-22
2022/01/05 08:42:46;;;;;;;8.13;3.47;;;21.00;49.20;;;;;;4931668;29;20240;-22
2022/01/05 08:45:14;;;;;;;7.07;2.87;;;20.80;49.50;;;;;;4933862;29;20224;-23
2022/01/05 08:47:40;;;;;;;7.47;3.10;;;21.20;49.40;;;;;;4932900;29;20265;-22
2022/01/05 08:50:06;;;;;;;5.90;3.00;;;22.20;48.50;;;;;;4933330;29;20178;-21
2022/01/05 08:52:32;;;;;;;5.43;2.57;;;23.70;46.50;;;;;;4933633;29;20176;-21
2022/01/05 08:54:58;;;;;;;8.13;3.13;;;23.90;45.50;;;;;;4934656;29;20188;-24
2022/01/05 08:57:23;;;;;;;5.50;3.30;;;23.70;45.30;;;;;;4933717;29;20183;-21
2022/01/05 08:59:51;;;;;;;6.57;3.07;;;23.70;45.50;;;;;;4931771;29;20596;-22
2022/01/05 09:02:18;;;;;;;6.70;3.13;;;23.70;45.40;;;;;;4933502;29;20214;-21
2022/01/05 09:04:43;;;;;;;5.63;3.03;;;24.00;45.10;;;;;;4933700;29;20176;-21
2022/01/05 09:07:10;;;;;;;6.43;3.00;;;24.20;44.80;;;;;;4932318;29;20442;-26
2022/01/05 09:09:36;;;;;;;6.27;2.73;;;24.20;44.60;;;;;;4931041;29;20187;-22
2022/01/05 09:12:03;;;;;;;5.17;2.50;;;24.10;44.50;;;;;;4932935;29;20562;-23
2022/01/05 09:14:29;;;;;;;6.90;2.70;;;24.10;44.50;;;;;;4926776;29;20200;-24
2022/01/05 09:16:55;;;;;;;5.27;2.50;;;24.20;44.50;;;;;;4933585;29;20187;-23
2022/01/05 09:19:20;;;;;;;4.03;2.67;;;24.00;44.50;;;;;;4930512;29;20679;-21
2022/01/05 09:21:48;;;;;;;7.10;2.83;;;24.00;44.60;;;;;;4932926;29;20348;-23
2022/01/05 09:24:15;;;;;;;4.13;2.30;;;23.70;44.60;;;;;;4931959;29;20187;-21
2022/01/05 09:26:41;;;;;;;5.57;2.50;;;23.50;44.90;;;;;;4932285;29;20191;-23
2022/01/05 09:29:07;;;;;;;4.90;2.40;;;23.20;45.20;;;;;;4931382;29;20176;-22
2022/01/05 09:31:33;;;;;;;5.53;2.70;;;22.80;45.50;;;;;;4931850;29;20206;-23
2022/01/05 09:33:59;;;;;;;5.00;2.40;;;22.30;46.00;;;;;;4931154;29;20215;-23
2022/01/05 09:41:59;;;;;;;4.40;2.10;;;21.70;46.80;;;;;;4930274;29;20235;-23
2022/01/05 09:44:31;;;;;;;3.90;2.20;;;21.40;47.20;;;;;;4930771;29;20186;-21
2022/01/05 09:47:20;;;;;;;4.00;2.30;;;21.10;47.40;;;;;;4949597;29;20701;-23
2022/01/05 09:49:58;;;;;;;3.47;1.80;;;20.90;47.80;;;;;;4933097;29;20165;-20
2022/01/05 09:52:25;;;;;;;3.93;2.20;;;20.90;47.90;;;;;;4933190;29;20260;-21
2022/01/05 09:59:02;;;;;;;4.90;2.40;;;21.30;47.50;;;;;;4931785;29;20180;-20
2022/01/05 10:01:34;;;;;;;4.43;2.00;;;22.20;46.60;;;;;;4932045;29;20179;-23
2022/01/05 10:04:00;;;;;;;3.27;1.90;;;23.10;45.50;;;;;;4931446;29;20239;-21
2022/01/05 10:20:15;;;;;;;4.33;2.07;;;24.50;42.90;;;;;;4932645;29;20195;-24
2022/01/05 10:22:45;;;;;;;4.67;2.17;;;24.60;42.90;;;;;;4931888;29;20255;-23
2022/01/05 10:25:23;;;;;;;2.70;1.60;;;24.60;42.80;;;;;;4934836;29;20195;-21
2022/01/05 10:37:58;;;;;;;4.77;1.87;;;23.50;43.70;;;;;;4932131;29;20175;-23
2022/01/05 10:40:24;;;;;;;4.40;1.90;;;23.00;44.20;;;;;;4932637;29;20191;-23
2022/01/05 10:42:56;;;;;;;2.87;1.63;;;22.90;44.40;;;;;;4932242;29;20212;-23
2022/01/05 10:45:38;;;;;;;4.33;2.00;;;22.80;44.50;;;;;;4927654;29;20180;-22
2022/01/05 10:48:06;;;;;;;3.20;1.70;;;22.60;44.50;;;;;;4931776;29;20182;-22
2022/01/05 11:00:41;;;;;;;3.60;1.50;;;22.00;45.40;;;;;;4935387;29;20181;-22
2022/01/05 11:13:27;;;;;;;2.90;1.80;;;23.20;44.40;;;;;;4920143;29;20448;-22
2022/01/05 11:15:58;;;;;;;3.03;1.60;;;24.10;43.40;;;;;;4916759;29;20187;-22
2022/01/05 11:18:24;;;;;;;2.33;1.50;;;24.50;42.80;;;;;;4921485;29;20545;-24
2022/01/05 11:20:52;;;;;;;2.70;1.30;;;24.80;42.50;;;;;;4934538;29;20172;-24
2022/01/05 11:23:23;;;;;;;3.63;1.60;;;25.00;42.10;;;;;;4948029;29;20208;-24
2022/01/05 11:25:51;;;;;;;3.37;1.60;;;25.20;41.90;;;;;;4935551;29;20169;-21
2022/01/05 11:28:18;;;;;;;3.27;1.70;;;25.00;42.00;;;;;;4929296;29;20177;-23
2022/01/05 11:40:54;;;;;;;2.60;1.43;;;24.70;42.10;;;;;;4932854;29;20207;-21
2022/01/05 11:43:33;;;;;;;2.07;1.33;;;24.30;42.40;;;;;;4933827;29;20210;-22
2022/01/05 11:46:16;;;;;;;3.00;1.53;;;24.20;42.60;;;;;;4935039;29;20221;-22
2022/01/05 11:49:01;;;;;;;3.20;1.40;;;23.90;42.70;;;;;;4934247;29;20183;-22
2022/01/05 11:51:45;;;;;;;2.90;1.57;;;23.80;42.90;;;;;;4935576;29;20234;-25
2022/01/05 11:54:23;;;;;;;1.80;1.20;;;23.60;43.00;;;;;;4938539;29;20191;-25
2022/01/05 12:10:22;;;;;;;3.53;1.67;;;22.80;43.90;;;;;;4930281;29;20202;-24
2022/01/05 12:12:56;;;;;;;2.80;1.20;;;22.80;44.30;;;;;;4935074;29;20234;-23
2022/01/05 12:15:56;;;;;;;2.37;1.40;;;22.80;44.00;;;;;;4934507;29;20172;-21
2022/01/05 12:18:24;;;;;;;3.33;1.40;;;22.90;43.90;;;;;;4949358;28;20183;-23
2022/01/05 12:20:51;;;;;;;2.67;1.57;;;23.20;43.60;;;;;;4933529;29;20283;-25
2022/01/05 12:26:39;;;;;;;2.63;1.30;;;23.90;42.90;;;;;;4927716;29;20604;-20
2022/01/05 12:29:05;;;;;;;2.60;1.33;;;24.20;42.60;;;;;;4935216;28;20380;-24
2022/01/05 12:31:56;;;;;;;2.63;1.43;;;24.40;42.30;;;;;;4948778;28;20180;-22
2022/01/05 12:34:54;;;;;;;2.57;1.30;;;24.80;41.90;;;;;;4934039;29;20177;-26
2022/01/05 12:37:41;;;;;;;3.13;1.30;;;24.90;41.80;;;;;;4948947;28;20176;-22
2022/01/05 12:40:39;;;;;;;2.07;1.37;;;24.60;41.90;;;;;;4933582;29;20543;-26
2022/01/05 12:43:08;;;;;;;1.93;1.10;;;24.70;41.80;;;;;;4933546;29;20259;-21
2022/01/05 12:45:58;;;;;;;2.20;1.47;;;24.80;41.80;;;;;;4933958;29;20191;-24
2022/01/05 12:48:35;;;;;;;2.70;1.40;;;24.80;41.70;;;;;;4935059;28;20576;-23
2022/01/05 12:51:22;;;;;;;2.53;1.40;;;24.60;41.80;;;;;;4933483;29;20175;-22
2022/01/05 12:53:56;;;;;;;2.37;1.30;;;24.70;41.80;;;;;;4934129;29;20263;-23
2022/01/05 12:56:24;;;;;;;1.77;1.30;;;24.40;42.00;;;;;;4934422;29;20176;-24
2022/01/05 12:58:51;;;;;;;1.93;1.50;;;24.20;42.20;;;;;;4949293;28;20184;-19
2022/01/05 13:01:18;;;;;;;3.40;1.27;;;24.20;42.20;;;;;;4949007;29;20185;-21
2022/01/05 13:03:44;;;;;;;3.00;1.50;;;23.90;42.40;;;;;;4948754;28;20613;-21
2022/01/05 13:06:28;;;;;;;2.13;1.47;;;23.70;42.60;;;;;;4933877;29;20234;-22
2022/01/05 13:09:05;;;;;;;2.30;1.30;;;23.40;42.90;;;;;;4933168;29;20168;-21
2022/01/05 13:11:45;;;;;;;1.80;1.27;;;23.20;43.20;;;;;;4948281;29;20176;-21
2022/01/05 13:14:21;;;;;;;2.50;1.50;;;22.90;43.40;;;;;;4939087;28;20184;-25
2022/01/05 13:16:52;;;;;;;1.50;1.00;;;22.50;43.70;;;;;;4939823;29;20700;-22
2022/01/05 13:19:47;;;;;;;2.17;1.57;;;22.30;44.10;;;;;;4949445;28;20236;-24
2022/01/05 13:22:24;;;;;;;2.97;1.20;;;22.10;44.50;;;;;;4932459;29;20202;-21
2022/01/05 13:25:24;;;;;;;2.03;1.30;;;22.30;44.40;;;;;;4932495;29;20211;-24
2022/01/05 13:27:53;;;;;;;2.60;1.47;;;23.10;43.80;;;;;;4932004;29;20286;-23
2022/01/05 13:30:27;;;;;;;2.07;1.20;;;23.80;43.00;;;;;;4932807;29;20176;-22
2022/01/05 13:33:00;;;;;;;2.40;1.57;;;24.10;42.60;;;;;;4930695;29;20636;-21
2022/01/05 13:35:37;;;;;;;4.47;1.30;;;24.50;42.10;;;;;;4931597;29;20297;-25
2022/01/05 13:38:03;;;;;;;2.70;1.40;;;24.70;41.90;;;;;;4931961;29;20172;-21
2022/01/05 13:40:33;;;;;;;3.10;1.23;;;24.60;41.90;;;;;;4931592;29;20465;-23
2022/01/05 13:43:10;;;;;;;2.13;1.20;;;24.40;42.10;;;;;;4948028;28;20295;-22
2022/01/05 13:45:45;;;;;;;2.30;1.30;;;24.10;42.20;;;;;;4932094;29;20176;-22
2022/01/05 13:48:23;;;;;;;2.43;1.20;;;24.20;42.30;;;;;;4931619;29;20206;-21
2022/01/05 13:50:57;;;;;;;2.00;1.33;;;24.30;42.30;;;;;;4933116;29;20254;-23
2022/01/05 13:53:26;;;;;;;3.50;1.40;;;24.30;42.20;;;;;;4933444;29;20183;-21
2022/01/05 13:56:10;;;;;;;2.80;1.57;;;24.20;42.30;;;;;;4947563;29;20206;-23
2022/01/05 13:58:37;;;;;;;2.53;1.50;;;24.10;42.40;;;;;;4948349;28;20176;-23
2022/01/05 14:01:11;;;;;;;3.33;1.40;;;24.20;42.50;;;;;;4932133;29;20204;-24
2022/01/05 14:03:42;;;;;;;2.80;1.40;;;24.00;42.50;;;;;;4932303;29;20228;-25
2022/01/05 14:06:18;;;;;;;2.70;1.53;;;23.90;42.60;;;;;;4947313;29;20173;-22
2022/01/05 14:08:44;;;;;;;3.40;1.57;;;23.80;42.70;;;;;;4932464;29;20517;-21
2022/01/05 14:11:14;;;;;;;1.87;1.30;;;23.50;42.90;;;;;;4931613;29;20187;-24
2022/01/05 14:13:51;;;;;;;2.10;1.30;;;23.30;43.20;;;;;;4946182;29;20176;-21
2022/01/05 14:16:37;;;;;;;2.67;1.53;;;23.30;43.40;;;;;;4931045;29;20209;-21
2022/01/05 14:19:10;;;;;;;2.10;1.50;;;23.10;43.60;;;;;;4937916;29;20185;-22